Time;durP1;ratioP1;P1;durP2;ratioP2;P2;SDS_P1;SDS_P2;PMS_P1;PMS_P2;Temp;Humidity;BMP_temperature;BMP_pressure;BME280_temperature;BME280_humidity;BME280_pressure;Samples;Min_cycle;Max_cycle;Signal;HPM_P1;HPM_P2
2021/12/19 00:01:20;;;;;;;26.07;19.03;;;;;;;2.36;83.45;98200.63;5019955;28;20225;-69
2021/12/19 00:03:55;;;;;;;24.43;18.30;;;;;;;2.40;84.54;98190.03;5020567;28;20218;-69
2021/12/19 00:09:07;;;;;;;24.97;18.23;;;;;;;2.37;84.37;98202.34;5039772;28;20230;-68
2021/12/19 00:11:34;;;;;;;26.60;19.27;;;;;;;2.46;84.09;98196.78;5039804;28;20221;-70
2021/12/19 00:14:01;;;;;;;24.70;18.37;;;;;;;2.42;83.96;98190.81;5040007;28;20214;-71
2021/12/19 00:16:28;;;;;;;26.00;19.47;;;;;;;2.46;83.56;98186.34;5040345;28;20543;-68
2021/12/19 00:18:55;;;;;;;22.70;18.00;;;;;;;2.42;83.59;98179.53;5043035;28;20217;-71
2021/12/19 00:21:22;;;;;;;21.60;17.73;;;;;;;2.35;83.98;98172.81;5040770;28;20217;-69
2021/12/19 00:23:50;;;;;;;24.57;18.37;;;;;;;2.36;84.11;98174.53;5038572;28;20218;-68
2021/12/19 00:26:19;;;;;;;23.73;17.87;;;;;;;2.36;84.40;98184.97;5040579;28;20221;-70
2021/12/19 00:28:47;;;;;;;25.37;18.30;;;;;;;2.37;84.12;98181.47;5027837;28;20207;-71
2021/12/19 00:31:14;;;;;;;23.93;18.83;;;;;;;2.37;83.34;98177.06;5029107;28;20237;-69
2021/12/19 00:33:41;;;;;;;23.40;18.53;;;;;;;2.43;83.23;98191.69;5034314;28;20211;-69
2021/12/19 00:36:09;;;;;;;26.23;19.10;;;;;;;2.39;84.31;98179.63;5033487;28;20220;-70
2021/12/19 00:38:36;;;;;;;23.73;17.67;;;;;;;2.50;83.87;98198.38;5036541;28;20216;-68
2021/12/19 00:41:04;;;;;;;24.10;18.53;;;;;;;2.39;82.99;98200.53;5026888;28;20211;-69
2021/12/19 00:43:35;;;;;;;23.60;19.10;;;;;;;2.40;83.43;98190.03;5037419;28;20211;-70
2021/12/19 00:46:06;;;;;;;22.80;17.77;;;;;;;2.37;83.71;98194.53;5047129;28;20199;-69
2021/12/19 00:48:34;;;;;;;26.00;18.90;;;;;;;2.36;84.77;98191.06;5031114;28;20203;-69
2021/12/19 00:51:01;;;;;;;28.07;19.40;;;;;;;2.39;84.31;98183.09;5029787;28;20234;-67
2021/12/19 00:53:27;;;;;;;23.20;18.23;;;;;;;2.40;84.58;98176.13;5040508;28;20226;-69
2021/12/19 00:55:54;;;;;;;24.93;18.63;;;;;;;2.41;84.11;98183.88;5032103;28;20222;-68
2021/12/19 00:58:20;;;;;;;26.60;18.93;;;;;;;2.46;84.16;98178.50;5024326;28;20222;-70
2021/12/19 01:00:48;;;;;;;24.43;18.67;;;;;;;2.45;83.60;98182.88;5038283;28;20210;-67
2021/12/19 01:03:15;;;;;;;27.23;19.07;;;;;;;2.41;84.11;98186.50;5020274;28;20223;-70
2021/12/19 01:05:42;;;;;;;23.83;18.60;;;;;;;2.43;83.60;98196.91;5029252;28;20234;-70
2021/12/19 01:08:11;;;;;;;25.47;18.90;;;;;;;2.45;83.84;98187.25;5036919;28;20214;-68
2021/12/19 01:10:38;;;;;;;25.93;19.37;;;;;;;2.40;84.40;98190.03;5036676;28;20229;-68
2021/12/19 01:13:04;;;;;;;25.27;19.07;;;;;;;2.51;84.12;98184.44;5036669;28;20218;-70
2021/12/19 01:15:31;;;;;;;25.77;19.33;;;;;;;2.44;84.02;98183.78;5036823;28;20215;-69
2021/12/19 01:17:59;;;;;;;26.40;19.00;;;;;;;2.37;84.26;98186.69;5036243;28;20220;-69
2021/12/19 01:20:28;;;;;;;26.23;19.73;;;;;;;2.45;83.96;98179.41;5036100;28;20627;-71
2021/12/19 01:22:55;;;;;;;24.73;18.80;;;;;;;2.44;84.61;98182.94;5036203;28;20214;-69
2021/12/19 01:25:22;;;;;;;24.73;19.37;;;;;;;2.40;84.91;98186.56;5036600;28;20210;-69
2021/12/19 01:27:49;;;;;;;25.27;19.50;;;;;;;2.37;84.25;98176.25;5032541;28;20222;-70
2021/12/19 01:30:16;;;;;;;28.37;20.63;;;;;;;2.37;83.32;98187.50;5016269;28;20672;-68
2021/12/19 01:32:42;;;;;;;26.63;19.90;;;;;;;2.34;84.70;98192.84;5016353;28;20212;-69
2021/12/19 01:35:16;;;;;;;26.00;19.47;;;;;;;2.32;83.50;98194.69;5016064;28;20223;-69
2021/12/19 01:37:43;;;;;;;24.77;19.20;;;;;;;2.38;84.13;98185.75;5034771;28;20215;-71
2021/12/19 01:40:11;;;;;;;24.83;18.60;;;;;;;2.45;83.52;98184.63;5036127;28;20203;-71
2021/12/19 01:42:40;;;;;;;26.07;20.17;;;;;;;2.51;82.06;98182.66;5036136;28;20218;-70
2021/12/19 01:45:09;;;;;;;24.37;19.60;;;;;;;2.56;82.35;98189.47;5036058;28;20220;-68
2021/12/19 01:47:36;;;;;;;24.37;19.67;;;;;;;2.62;81.78;98192.72;5037071;28;20236;-71
2021/12/19 01:50:03;;;;;;;25.80;19.13;;;;;;;2.51;81.73;98189.66;5037819;28;20695;-71
2021/12/19 01:52:31;;;;;;;25.33;19.90;;;;;;;2.46;82.35;98181.13;5029873;28;20208;-70
2021/12/19 01:54:59;;;;;;;28.83;20.30;;;;;;;2.42;83.00;98177.78;5039958;28;20211;-68
2021/12/19 01:57:26;;;;;;;25.10;19.10;;;;;;;2.49;83.04;98174.03;5035751;28;20224;-68
2021/12/19 01:59:53;;;;;;;27.03;20.47;;;;;;;2.46;83.08;98168.94;5035610;28;20214;-71
2021/12/19 02:02:20;;;;;;;25.40;19.40;;;;;;;2.33;84.31;98175.50;5035667;28;20649;-70
2021/12/19 02:04:46;;;;;;;27.30;20.03;;;;;;;2.30;84.08;98174.75;5035669;28;20199;-68
2021/12/19 02:07:13;;;;;;;26.37;19.80;;;;;;;2.27;84.44;98178.31;5036144;28;20205;-70
2021/12/19 02:09:42;;;;;;;26.07;19.73;;;;;;;2.27;84.13;98174.84;5035487;28;20663;-69
2021/12/19 02:12:09;;;;;;;27.13;20.87;;;;;;;2.26;84.51;98163.59;5035745;28;20210;-71
2021/12/19 02:14:35;;;;;;;28.13;21.50;;;;;;;2.27;84.68;98167.88;5031720;28;20535;-71
2021/12/19 02:17:02;;;;;;;26.97;20.53;;;;;;;2.32;85.00;98168.56;5015910;28;20638;-68
2021/12/19 02:19:30;;;;;;;26.17;19.67;;;;;;;2.35;84.08;98173.69;5029078;28;20229;-69
2021/12/19 02:21:58;;;;;;;27.67;20.87;;;;;;;2.38;83.37;98176.19;5035615;28;20480;-68
2021/12/19 02:24:24;;;;;;;25.17;18.83;;;;;;;2.24;84.37;98180.19;5031109;28;20247;-71
2021/12/19 02:26:50;;;;;;;26.27;21.00;;;;;;;2.26;83.69;98174.03;5015592;28;20222;-71
2021/12/19 02:29:17;;;;;;;28.47;21.43;;;;;;;2.21;84.02;98169.84;5015560;28;20221;-70
2021/12/19 02:31:45;;;;;;;28.40;20.97;;;;;;;2.25;83.76;98171.47;5015460;28;20236;-70
2021/12/19 02:34:16;;;;;;;26.20;19.97;;;;;;;2.26;83.54;98173.16;5015760;28;20316;-71
2021/12/19 02:36:55;;;;;;;28.27;21.10;;;;;;;2.27;83.85;98156.59;5015680;28;20221;-69
2021/12/19 02:39:51;;;;;;;29.07;21.37;;;;;;;2.21;84.50;98165.50;5022685;28;20233;-70
2021/12/19 02:48:13;;;;;;;26.73;19.33;;;;;;;2.24;85.12;98169.75;5035107;28;20224;-71
2021/12/19 02:50:46;;;;;;;28.47;20.70;;;;;;;2.29;85.20;98175.66;5034925;28;20233;-70
2021/12/19 02:53:13;;;;;;;27.10;19.53;;;;;;;2.34;83.87;98165.88;5035097;28;20201;-71
2021/12/19 02:55:41;;;;;;;26.83;20.77;;;;;;;2.32;82.83;98159.88;5035149;28;20216;-71
2021/12/19 02:58:08;;;;;;;28.67;22.03;;;;;;;2.17;83.23;98152.59;5035107;28;20248;-69
2021/12/19 03:00:35;;;;;;;27.30;20.33;;;;;;;2.19;83.56;98145.59;5035265;28;20213;-69
2021/12/19 03:03:01;;;;;;;27.50;20.80;;;;;;;2.15;83.39;98146.59;5034928;28;20226;-68
2021/12/19 03:05:30;;;;;;;29.37;21.07;;;;;;;2.12;84.67;98152.78;5034657;28;20308;-69
2021/12/19 03:07:57;;;;;;;30.53;22.17;;;;;;;2.08;85.25;98152.94;5034388;28;20221;-69
2021/12/19 03:13:21;;;;;;;32.00;22.60;;;;;;;2.16;85.54;98153.53;5034564;28;20261;-68
2021/12/19 03:18:32;;;;;;;28.67;20.67;;;;;;;2.16;84.96;98150.91;5034968;28;20209;-68
2021/12/19 03:20:58;;;;;;;32.07;22.50;;;;;;;2.16;85.54;98148.31;5034938;28;20213;-70
2021/12/19 03:23:25;;;;;;;28.90;21.90;;;;;;;2.19;84.49;98145.59;5034771;28;20289;-69
2021/12/19 03:25:52;;;;;;;29.53;22.17;;;;;;;2.12;85.09;98144.09;5034638;28;20242;-69
2021/12/19 03:28:20;;;;;;;33.00;23.07;;;;;;;2.06;85.12;98139.06;5034664;28;20213;-71
2021/12/19 03:30:47;;;;;;;28.93;21.13;;;;;;;2.12;84.08;98128.44;5034513;28;20241;-68
2021/12/19 03:33:14;;;;;;;30.30;21.80;;;;;;;2.16;83.72;98130.88;5034888;28;20224;-69
2021/12/19 03:35:42;;;;;;;29.13;22.03;;;;;;;2.05;84.30;98116.53;5034733;28;20210;-70
2021/12/19 03:38:10;;;;;;;30.00;22.90;;;;;;;2.03;85.36;98123.53;5034492;28;20212;-70
2021/12/19 03:40:39;;;;;;;30.90;22.43;;;;;;;2.05;85.33;98129.56;5034533;28;20234;-70
2021/12/19 03:43:07;;;;;;;29.47;21.93;;;;;;;2.07;84.85;98128.59;5034774;28;20210;-71
2021/12/19 03:45:36;;;;;;;31.17;22.57;;;;;;;2.14;85.14;98121.41;5034319;28;20668;-69
2021/12/19 03:48:04;;;;;;;29.37;22.40;;;;;;;2.18;84.51;98128.22;5034435;28;20237;-70
2021/12/19 03:50:33;;;;;;;31.80;22.57;;;;;;;2.25;84.03;98132.31;5034629;28;20229;-70
2021/12/19 03:53:00;;;;;;;28.90;22.20;;;;;;;2.24;83.48;98127.97;5034458;28;20214;-70
2021/12/19 03:55:27;;;;;;;30.03;22.10;;;;;;;2.28;82.78;98125.22;5034646;28;20245;-69
2021/12/19 03:57:55;;;;;;;29.47;21.27;;;;;;;2.28;82.97;98129.56;5035871;28;20225;-72
2021/12/19 04:00:24;;;;;;;28.70;21.57;;;;;;;2.28;82.90;98127.81;5024730;28;20207;-70
2021/12/19 04:02:53;;;;;;;31.43;22.07;;;;;;;2.20;83.77;98126.38;5037502;28;20638;-70
2021/12/19 04:05:20;;;;;;;27.10;21.13;;;;;;;2.21;84.06;98128.09;5037451;28;20229;-70
2021/12/19 04:07:47;;;;;;;29.50;21.83;;;;;;;2.23;83.30;98113.25;5037750;28;20221;-71
2021/12/19 04:10:13;;;;;;;30.70;22.57;;;;;;;2.03;85.02;98113.09;5037702;28;20211;-68
2021/12/19 04:12:42;;;;;;;31.73;22.53;;;;;;;2.03;85.22;98113.97;5037329;28;20210;-71
2021/12/19 04:15:09;;;;;;;29.23;21.27;;;;;;;2.07;85.52;98104.25;5037460;28;20210;-70
2021/12/19 04:17:36;;;;;;;33.83;23.50;;;;;;;2.04;85.77;98102.63;5037595;28;20213;-68
2021/12/19 04:20:05;;;;;;;35.60;23.93;;;;;;;2.00;85.97;98103.63;5037747;28;20236;-68
2021/12/19 04:22:31;;;;;;;31.27;22.40;;;;;;;2.02;85.92;98111.41;5037241;28;20203;-68
2021/12/19 04:24:58;;;;;;;30.50;21.93;;;;;;;2.06;85.26;98097.34;5037727;28;20222;-71
2021/12/19 04:27:26;;;;;;;31.73;22.73;;;;;;;2.06;84.59;98094.72;5037190;28;20723;-70
2021/12/19 04:29:53;;;;;;;29.83;21.37;;;;;;;2.08;84.90;98092.94;5037647;28;20212;-70
2021/12/19 04:32:24;;;;;;;30.30;22.30;;;;;;;2.10;84.88;98091.09;5037993;28;20230;-69
2021/12/19 04:34:51;;;;;;;32.17;23.20;;;;;;;2.02;85.48;98087.94;5038204;28;20202;-69
2021/12/19 04:37:38;;;;;;;30.37;22.43;;;;;;;2.05;85.99;98090.44;5038161;28;20210;-71
2021/12/19 04:40:13;;;;;;;31.27;22.83;;;;;;;2.07;84.55;98091.22;5037315;28;20215;-70
2021/12/19 04:43:56;;;;;;;32.10;22.63;;;;;;;1.99;85.70;98086.28;5025862;28;20206;-70
2021/12/19 04:51:47;;;;;;;33.70;22.97;;;;;;;2.06;84.98;98076.47;5037080;28;20274;-70
2021/12/19 04:54:27;;;;;;;32.60;22.80;;;;;;;2.03;84.99;98072.22;5038063;28;20233;-70
2021/12/19 04:57:05;;;;;;;35.10;24.07;;;;;;;1.98;85.45;98074.97;5038838;28;20217;-70
2021/12/19 05:02:16;;;;;;;34.90;24.10;;;;;;;2.02;86.05;98073.13;5024476;28;20283;-68
2021/12/19 05:15:47;;;;;;;34.90;24.53;;;;;;;2.15;85.08;98076.13;5037693;28;20337;-69
2021/12/19 05:18:13;;;;;;;33.43;23.30;;;;;;;2.08;86.07;98075.53;5023859;28;20208;-68
2021/12/19 05:20:50;;;;;;;34.20;24.17;;;;;;;2.14;85.37;98069.22;5037090;28;20640;-69
2021/12/19 05:23:23;;;;;;;35.33;24.43;;;;;;;2.15;84.26;98065.69;5025177;28;20274;-70
2021/12/19 05:25:51;;;;;;;34.80;24.20;;;;;;;2.03;85.59;98076.56;5035392;28;20525;-69
2021/12/19 05:28:17;;;;;;;37.30;25.17;;;;;;;1.98;86.02;98074.16;5016869;28;20211;-71
2021/12/19 05:30:44;;;;;;;35.40;25.37;;;;;;;1.97;86.12;98078.53;5016514;28;20702;-71
2021/12/19 05:33:11;;;;;;;37.20;24.70;;;;;;;2.00;86.11;98073.19;5016856;28;20216;-69
2021/12/19 05:35:58;;;;;;;37.33;24.70;;;;;;;2.05;85.32;98083.47;5016411;28;20225;-71
2021/12/19 05:45:11;;;;;;;37.93;25.17;;;;;;;2.08;85.21;98077.28;5020038;28;20221;-68
2021/12/19 05:46:57;;;;;;;35.83;24.40;;;;;;;1.99;85.51;98068.88;5035855;28;20226;-70
2021/12/19 05:49:24;;;;;;;38.17;24.63;;;;;;;2.09;84.54;98058.09;5036260;28;20214;-69
2021/12/19 05:51:50;;;;;;;36.70;25.00;;;;;;;2.07;85.23;98062.50;5035400;28;20242;-69
2021/12/19 05:54:16;;;;;;;35.17;23.53;;;;;;;2.11;84.64;98064.09;5035921;28;20222;-68
2021/12/19 05:56:44;;;;;;;34.87;24.17;;;;;;;2.02;84.40;98074.91;5035985;28;20221;-69
2021/12/19 05:59:11;;;;;;;32.47;23.43;;;;;;;2.03;84.60;98066.13;5035653;28;20226;-69
2021/12/19 06:01:39;;;;;;;34.10;23.60;;;;;;;1.99;85.01;98070.63;5035822;28;20202;-71
2021/12/19 06:04:06;;;;;;;34.20;23.83;;;;;;;1.88;85.41;98073.63;5035650;28;20544;-69
2021/12/19 06:06:32;;;;;;;35.03;24.60;;;;;;;1.87;85.79;98071.94;5035144;28;20273;-69
2021/12/19 06:08:58;;;;;;;34.53;23.50;;;;;;;1.85;86.23;98065.03;5035721;28;20210;-69
2021/12/19 06:11:25;;;;;;;35.90;23.00;;;;;;;1.87;85.90;98066.72;5035577;28;20258;-70
2021/12/19 06:13:53;;;;;;;33.50;23.53;;;;;;;1.82;86.61;98068.63;5035326;28;20257;-69
2021/12/19 06:16:19;;;;;;;34.50;23.60;;;;;;;1.80;86.15;98067.00;5035283;28;20208;-70
2021/12/19 06:18:47;;;;;;;35.20;24.47;;;;;;;1.82;86.75;98063.41;5035762;28;20241;-69
2021/12/19 06:21:13;;;;;;;34.83;24.10;;;;;;;1.80;86.77;98065.25;5034861;28;20216;-70
2021/12/19 06:23:40;;;;;;;34.93;23.13;;;;;;;1.82;85.91;98066.03;5035745;28;20222;-70
2021/12/19 06:26:10;;;;;;;32.80;22.73;;;;;;;1.84;87.00;98066.81;5035452;28;20253;-69
2021/12/19 06:28:37;;;;;;;33.70;23.37;;;;;;;1.84;86.79;98063.38;5040183;28;20630;-69
2021/12/19 06:31:05;;;;;;;35.13;24.53;;;;;;;1.79;86.23;98066.13;5041454;28;20235;-69
2021/12/19 06:33:31;;;;;;;39.10;25.67;;;;;;;1.81;86.74;98069.53;5040825;28;20216;-70
2021/12/19 06:35:58;;;;;;;38.63;25.47;;;;;;;1.82;86.45;98060.81;5039918;28;20220;-70
2021/12/19 06:38:24;;;;;;;36.80;24.37;;;;;;;1.80;86.55;98059.16;5027507;28;20217;-70
2021/12/19 06:40:50;;;;;;;35.30;24.60;;;;;;;1.73;86.56;98058.53;5039000;28;20216;-69
2021/12/19 06:43:17;;;;;;;34.63;23.57;;;;;;;1.75;86.72;98054.09;5028893;28;20204;-69
2021/12/19 06:45:44;;;;;;;39.47;26.03;;;;;;;1.74;86.62;98059.38;5042832;28;20531;-71
2021/12/19 06:48:11;;;;;;;37.43;24.83;;;;;;;1.76;86.58;98049.75;5043531;28;20211;-68
2021/12/19 06:50:38;;;;;;;35.23;25.10;;;;;;;1.74;85.86;98047.19;5023006;28;20217;-70
2021/12/19 06:53:04;;;;;;;33.33;23.17;;;;;;;1.74;86.52;98044.56;5036192;28;20230;-69
2021/12/19 06:55:31;;;;;;;35.37;24.30;;;;;;;1.77;87.71;98041.84;5035536;28;20224;-69
2021/12/19 06:57:57;;;;;;;34.77;24.53;;;;;;;1.83;87.00;98032.97;5035064;28;20217;-68
2021/12/19 07:00:25;;;;;;;35.83;25.30;;;;;;;1.84;87.53;98038.09;5035162;28;20205;-68
2021/12/19 07:02:53;;;;;;;36.63;25.13;;;;;;;1.85;86.57;98042.44;5034752;28;20210;-68
2021/12/19 07:05:21;;;;;;;35.80;24.87;;;;;;;1.87;88.06;98035.41;5034905;28;20245;-69
2021/12/19 07:07:48;;;;;;;38.37;25.53;;;;;;;1.84;85.88;98025.06;5034860;28;20217;-71
2021/12/19 07:10:14;;;;;;;36.17;25.47;;;;;;;1.77;86.54;98023.59;5034883;28;20214;-70
2021/12/19 07:12:41;;;;;;;36.47;25.30;;;;;;;1.71;86.79;98029.03;5034695;28;20226;-68
2021/12/19 07:15:09;;;;;;;39.50;26.17;;;;;;;1.75;86.18;98030.63;5034759;28;20225;-69
2021/12/19 07:17:36;;;;;;;36.70;25.27;;;;;;;1.74;85.96;98028.91;5034534;28;20219;-68
2021/12/19 07:20:03;;;;;;;40.23;26.37;;;;;;;1.74;86.38;98031.53;5034971;28;20230;-70
2021/12/19 07:22:30;;;;;;;36.23;24.80;;;;;;;1.73;86.37;98045.50;5035338;28;20202;-70
2021/12/19 07:24:57;;;;;;;37.50;26.30;;;;;;;1.77;86.22;98033.19;5039720;28;20221;-69
2021/12/19 07:27:23;;;;;;;38.00;25.37;;;;;;;1.79;86.71;98040.06;5038167;28;20201;-70
2021/12/19 07:29:50;;;;;;;37.70;25.70;;;;;;;1.82;87.64;98042.53;5039218;28;20642;-68
2021/12/19 07:32:16;;;;;;;35.77;24.30;;;;;;;1.90;86.87;98042.28;5035052;28;20243;-71
2021/12/19 07:34:44;;;;;;;35.50;25.20;;;;;;;1.98;86.90;98035.84;5043256;28;20218;-69
2021/12/19 07:37:10;;;;;;;34.13;24.27;;;;;;;1.93;85.86;98050.84;5039513;28;20206;-69
2021/12/19 07:39:51;;;;;;;35.00;25.63;;;;;;;2.00;86.90;98047.09;5038259;28;20217;-70
2021/12/19 07:42:17;;;;;;;34.83;24.73;;;;;;;1.97;86.36;98036.78;5038520;28;20207;-70
2021/12/19 07:44:44;;;;;;;35.30;24.77;;;;;;;1.82;85.24;98037.34;5038299;28;20607;-71
2021/12/19 07:47:12;;;;;;;34.60;25.00;;;;;;;1.96;86.14;98035.06;5038012;28;20213;-68
2021/12/19 07:49:38;;;;;;;37.43;27.03;;;;;;;1.90;86.29;98043.13;5038149;28;20213;-71
2021/12/19 07:52:04;;;;;;;33.70;24.70;;;;;;;1.93;86.54;98034.31;5038144;28;20241;-69
2021/12/19 07:54:31;;;;;;;32.83;25.17;;;;;;;1.96;86.92;98032.47;5038233;28;20209;-69
2021/12/19 07:56:59;;;;;;;37.10;25.67;;;;;;;1.96;86.31;98034.22;5038011;28;20657;-70
2021/12/19 07:59:25;;;;;;;37.27;25.17;;;;;;;2.05;86.34;98040.88;5037826;28;20221;-69
2021/12/19 08:01:52;;;;;;;35.40;25.33;;;;;;;2.11;86.18;98041.47;5038344;28;20213;-71
2021/12/19 08:04:19;;;;;;;37.83;25.30;;;;;;;2.14;86.01;98040.50;5038344;28;20223;-71
2021/12/19 08:06:45;;;;;;;36.57;25.93;;;;;;;2.04;86.00;98029.56;5019753;28;20239;-71
2021/12/19 08:09:21;;;;;;;38.67;25.50;;;;;;;2.06;86.39;98034.72;5018366;28;20534;-69
2021/12/19 08:11:47;;;;;;;37.03;25.80;;;;;;;2.14;85.28;98030.91;5018301;28;20217;-71
2021/12/19 08:14:16;;;;;;;37.17;26.90;;;;;;;2.13;85.13;98031.81;5018490;28;20204;-68
2021/12/19 08:16:43;;;;;;;36.23;26.00;;;;;;;2.04;85.67;98031.31;5018308;28;20214;-71
2021/12/19 08:19:10;;;;;;;36.13;25.80;;;;;;;2.12;85.52;98024.06;5018386;28;20220;-70
2021/12/19 08:21:37;;;;;;;36.87;24.80;;;;;;;2.13;85.32;98012.69;5026241;28;20617;-70
2021/12/19 08:24:09;;;;;;;37.43;25.93;;;;;;;2.04;85.19;98013.06;5024436;28;20218;-70
2021/12/19 08:26:36;;;;;;;34.50;24.70;;;;;;;2.06;85.66;98013.84;5017513;28;20702;-70
2021/12/19 08:29:03;;;;;;;35.90;26.23;;;;;;;2.06;85.28;98009.47;5018006;28;20229;-68
2021/12/19 08:31:31;;;;;;;33.27;24.47;;;;;;;2.06;85.67;98016.44;5018157;28;20545;-69
2021/12/19 08:33:58;;;;;;;35.67;25.33;;;;;;;2.16;85.86;98017.84;5017617;28;20215;-69
2021/12/19 08:36:25;;;;;;;37.80;25.80;;;;;;;2.19;85.74;98015.94;5017735;28;20265;-70
2021/12/19 08:38:51;;;;;;;40.50;26.07;;;;;;;2.20;85.10;98016.78;5017230;28;20210;-69
2021/12/19 08:41:18;;;;;;;35.93;25.57;;;;;;;2.23;85.49;98016.69;5018028;28;20231;-70
2021/12/19 08:43:44;;;;;;;39.07;26.97;;;;;;;2.21;85.11;98008.03;5020110;28;20207;-68
2021/12/19 08:46:11;;;;;;;38.23;26.17;;;;;;;2.22;85.55;98014.97;5038652;28;20707;-71
2021/12/19 08:48:40;;;;;;;33.87;25.17;;;;;;;2.27;85.81;98002.59;5038322;28;20663;-69
2021/12/19 08:51:06;;;;;;;37.43;25.13;;;;;;;2.30;84.32;98005.09;5039920;28;20226;-71
2021/12/19 08:53:33;;;;;;;37.00;26.17;;;;;;;2.26;84.42;98008.72;5039314;28;20235;-68
2021/12/19 08:56:00;;;;;;;35.43;25.37;;;;;;;2.28;84.29;98002.53;5038145;28;20298;-69
2021/12/19 08:58:28;;;;;;;36.63;25.73;;;;;;;2.18;84.10;98000.34;5036878;28;20219;-69
2021/12/19 09:00:57;;;;;;;37.20;26.03;;;;;;;2.25;83.94;97997.44;5037009;28;20276;-69
2021/12/19 09:03:24;;;;;;;34.70;25.20;;;;;;;2.29;85.11;97992.94;5037164;28;20619;-68
2021/12/19 09:05:52;;;;;;;36.63;25.00;;;;;;;2.30;84.52;97987.66;5036590;28;20238;-69
2021/12/19 09:08:18;;;;;;;37.07;25.63;;;;;;;2.40;83.84;97988.16;5036578;28;20219;-69
2021/12/19 09:10:45;;;;;;;34.90;25.30;;;;;;;2.30;84.97;97981.63;5036970;28;20215;-67
2021/12/19 09:13:11;;;;;;;37.60;26.27;;;;;;;2.24;84.45;97992.25;5036507;28;20229;-68
2021/12/19 09:15:38;;;;;;;38.70;26.00;;;;;;;2.25;84.83;97983.53;5036619;28;20643;-70
2021/12/19 09:18:04;;;;;;;38.37;26.77;;;;;;;2.19;84.28;97983.78;5036643;28;20277;-68
2021/12/19 09:20:31;;;;;;;36.80;26.43;;;;;;;2.30;84.66;97984.22;5036561;28;20302;-70
2021/12/19 09:22:59;;;;;;;35.97;25.87;;;;;;;2.35;84.47;97984.88;5032017;28;20559;-68
2021/12/19 09:25:28;;;;;;;38.43;26.70;;;;;;;2.40;84.85;97983.81;5017280;28;20217;-68
2021/12/19 09:27:54;;;;;;;37.00;26.67;;;;;;;2.41;84.19;97984.63;5018894;28;20232;-69
2021/12/19 09:30:21;;;;;;;38.47;26.93;;;;;;;2.45;84.12;97986.19;5017145;28;20294;-68
2021/12/19 09:32:49;;;;;;;36.70;25.90;;;;;;;2.51;85.03;97992.03;5016492;28;20231;-68
2021/12/19 09:35:16;;;;;;;39.57;27.73;;;;;;;2.55;83.93;97982.31;5017150;28;20250;-68
2021/12/19 09:37:42;;;;;;;38.33;26.90;;;;;;;2.46;82.73;97978.31;5017116;28;20222;-70
2021/12/19 09:40:17;;;;;;;40.40;26.67;;;;;;;2.38;83.73;97988.22;5016775;28;20216;-70
2021/12/19 09:42:48;;;;;;;35.97;27.07;;;;;;;2.39;83.68;97987.31;5024351;28;20202;-67
2021/12/19 09:45:14;;;;;;;38.97;26.60;;;;;;;2.49;84.11;97990.41;5024949;28;20230;-70
2021/12/19 09:47:41;;;;;;;38.83;26.93;;;;;;;2.62;83.31;97989.03;5036249;28;20290;-69
2021/12/19 09:50:08;;;;;;;39.63;27.37;;;;;;;2.68;82.80;97985.31;5036310;28;20211;-70
2021/12/19 09:52:34;;;;;;;37.13;26.30;;;;;;;2.63;83.08;97993.31;5036043;28;20234;-70
2021/12/19 09:55:01;;;;;;;36.03;26.17;;;;;;;2.60;84.16;97980.38;5035433;28;20218;-70
2021/12/19 09:57:29;;;;;;;37.33;26.77;;;;;;;2.73;83.01;97973.75;5036037;28;20214;-70
2021/12/19 09:59:56;;;;;;;37.37;26.03;;;;;;;2.66;83.80;97977.50;5035672;28;20218;-70
2021/12/19 10:02:23;;;;;;;36.70;25.90;;;;;;;2.67;83.42;97971.38;5035921;28;20242;-70
2021/12/19 10:04:50;;;;;;;39.50;27.93;;;;;;;2.58;82.61;97961.31;5035654;28;20300;-68
2021/12/19 10:07:18;;;;;;;36.27;25.87;;;;;;;2.63;82.64;97963.72;5035818;28;20218;-69
2021/12/19 10:09:56;;;;;;;37.77;27.77;;;;;;;2.62;83.32;97962.06;5035813;28;20238;-69
2021/12/19 10:12:38;;;;;;;39.40;27.70;;;;;;;2.63;82.68;97953.28;5035758;28;20538;-70
2021/12/19 10:15:09;;;;;;;36.40;26.83;;;;;;;2.47;82.82;97940.03;5035413;28;20709;-71
2021/12/19 10:17:36;;;;;;;37.00;26.97;;;;;;;2.51;83.60;97929.38;5035397;28;20211;-69
2021/12/19 10:20:04;;;;;;;38.23;27.53;;;;;;;2.48;84.27;97931.25;5035646;28;20210;-68
2021/12/19 10:22:32;;;;;;;40.73;27.20;;;;;;;2.57;83.60;97930.91;5035293;28;20206;-69
2021/12/19 10:25:11;;;;;;;39.30;27.53;;;;;;;2.55;83.45;97926.66;5035459;28;20214;-68
2021/12/19 10:27:40;;;;;;;38.33;26.20;;;;;;;2.61;83.82;97919.41;5018567;28;20250;-70
2021/12/19 10:30:13;;;;;;;38.67;28.37;;;;;;;2.69;82.65;97927.78;5015962;28;20214;-67
2021/12/19 10:32:57;;;;;;;35.00;25.77;;;;;;;2.72;83.41;97922.44;5015798;28;20302;-69
2021/12/19 10:35:26;;;;;;;37.93;27.77;;;;;;;2.69;83.83;97917.34;5015532;28;20210;-69
2021/12/19 10:37:53;;;;;;;36.77;26.63;;;;;;;2.78;83.30;97916.94;5025299;28;20211;-69
2021/12/19 10:40:20;;;;;;;39.97;27.73;;;;;;;2.88;82.33;97913.03;5038389;28;20187;-70
2021/12/19 10:42:49;;;;;;;40.40;27.70;;;;;;;2.88;83.62;97915.63;5038639;28;20188;-70
2021/12/19 10:45:35;;;;;;;36.40;26.30;;;;;;;2.92;82.59;97909.38;5038584;28;20196;-69
2021/12/19 10:48:27;;;;;;;42.33;29.10;;;;;;;2.85;81.53;97892.25;5031017;28;20239;-71
2021/12/19 10:51:05;;;;;;;38.17;27.73;;;;;;;2.80;82.37;97883.75;5015151;28;20623;-71
2021/12/19 10:53:34;;;;;;;37.20;27.40;;;;;;;3.01;81.37;97871.56;5032894;28;20229;-68
2021/12/19 10:56:03;;;;;;;39.30;27.93;;;;;;;2.86;82.25;97867.00;5035576;28;20226;-70
2021/12/19 10:58:37;;;;;;;35.27;26.23;;;;;;;2.89;82.60;97865.09;5035442;28;20210;-69
2021/12/19 11:01:14;;;;;;;39.57;26.97;;;;;;;2.98;83.01;97872.53;5035662;28;20625;-69
2021/12/19 11:03:47;;;;;;;39.27;27.67;;;;;;;3.10;82.30;97865.06;5035496;28;20266;-71
2021/12/19 11:06:23;;;;;;;40.17;27.63;;;;;;;2.97;81.99;97860.38;5035359;28;20246;-70
2021/12/19 11:08:51;;;;;;;40.37;28.50;;;;;;;3.03;81.70;97863.63;5039427;28;20204;-69
2021/12/19 11:11:39;;;;;;;39.03;28.00;;;;;;;2.98;81.65;97854.22;5038858;28;20223;-70
2021/12/19 11:14:05;;;;;;;40.40;27.60;;;;;;;2.91;81.95;97850.19;5039052;28;20253;-70
2021/12/19 11:16:34;;;;;;;43.03;28.30;;;;;;;2.97;81.88;97849.09;5039237;28;20214;-72
2021/12/19 11:19:00;;;;;;;38.23;28.20;;;;;;;3.18;81.41;97842.06;5044520;28;20211;-71
2021/12/19 11:21:32;;;;;;;42.30;29.10;;;;;;;3.12;82.01;97839.72;5052465;28;20219;-71
2021/12/19 11:23:59;;;;;;;38.33;28.23;;;;;;;3.10;82.59;97841.53;5044315;28;20266;-71
2021/12/19 11:26:26;;;;;;;40.37;29.10;;;;;;;3.13;81.08;97838.78;5039088;28;20229;-71
2021/12/19 11:28:54;;;;;;;41.23;29.63;;;;;;;3.08;79.85;97835.56;5038671;28;20218;-68
2021/12/19 11:31:21;;;;;;;40.07;28.13;;;;;;;3.07;81.76;97831.22;5039847;28;20552;-70
2021/12/19 11:34:11;;;;;;;39.40;27.37;;;;;;;3.15;80.90;97831.75;5040793;28;20565;-69
2021/12/19 11:36:41;;;;;;;40.47;28.50;;;;;;;3.07;81.76;97833.84;5028954;28;20226;-70
2021/12/19 11:39:08;;;;;;;38.97;28.63;;;;;;;3.19;81.27;97822.84;5038714;28;20210;-68
2021/12/19 11:41:35;;;;;;;40.53;28.30;;;;;;;3.32;80.25;97811.78;5038541;28;20226;-69
2021/12/19 11:44:05;;;;;;;37.73;27.43;;;;;;;3.26;79.79;97803.38;5038610;28;20234;-68
2021/12/19 11:46:45;;;;;;;40.50;28.17;;;;;;;3.33;80.81;97804.78;5039069;28;20210;-70
2021/12/19 11:49:18;;;;;;;38.17;28.27;;;;;;;3.22;79.43;97801.81;5030492;28;20289;-70
2021/12/19 11:51:45;;;;;;;39.93;27.47;;;;;;;3.24;80.47;97794.72;5034349;28;20299;-71
2021/12/19 11:54:13;;;;;;;37.10;27.20;;;;;;;3.18;81.07;97790.63;5038723;28;20223;-70
2021/12/19 11:56:39;;;;;;;35.17;25.30;;;;;;;3.19;80.68;97788.88;5038185;28;21204;-70
2021/12/19 11:59:17;;;;;;;34.60;26.03;;;;;;;3.13;80.63;97782.16;5038382;28;20211;-68
2021/12/19 12:01:45;;;;;;;36.73;26.27;;;;;;;3.13;81.05;97786.53;5037946;28;20202;-71
2021/12/19 12:04:14;;;;;;;37.93;27.07;;;;;;;3.22;81.28;97780.88;5038228;28;20211;-69
2021/12/19 12:06:42;;;;;;;37.67;26.97;;;;;;;3.33;80.92;97779.44;5037689;28;20600;-69
2021/12/19 12:09:22;;;;;;;35.87;25.70;;;;;;;3.43;79.24;97772.06;5038222;28;20211;-69
2021/12/19 12:12:10;;;;;;;34.73;25.30;;;;;;;3.53;78.56;97755.00;5025303;28;20686;-71